createdAt,value
2018-09-28T00:00:15.889Z,29.92
2018-09-28T00:02:46.466Z,25.08
2018-09-28T00:05:16.696Z,32.03
2018-09-28T00:07:46.796Z,30.92
2018-09-28T00:10:16.915Z,31.17
2018-09-28T00:12:47.160Z,30.97
2018-09-28T00:15:17.529Z,25.62
2018-09-28T00:17:47.690Z,27.60
2018-09-28T00:20:17.682Z,23.42
2018-09-28T00:22:48.142Z,24.20
2018-09-28T00:25:19.075Z,20.65
2018-09-28T00:27:49.642Z,29.25
2018-09-28T00:30:24.877Z,26.02
2018-09-28T00:32:54.979Z,25.75
2018-09-28T00:35:25.267Z,26.27
2018-09-28T00:37:55.725Z,31.10
2018-09-28T00:40:25.887Z,24.47
2018-09-28T00:42:56.126Z,25.75
2018-09-28T00:45:26.612Z,26.42
2018-09-28T00:47:56.751Z,27.77
2018-09-28T00:50:27.360Z,25.82
2018-09-28T00:52:58.051Z,27.17
2018-09-28T00:55:28.854Z,27.62
2018-09-28T00:57:59.177Z,27.17
2018-09-28T01:00:29.968Z,25.45
2018-09-28T01:03:00.660Z,26.10
2018-09-28T01:05:31.424Z,28.40
2018-09-28T01:08:02.486Z,31.42
2018-09-28T01:10:33.233Z,24.47
2018-09-28T01:13:03.633Z,29.25
2018-09-28T01:15:33.793Z,26.50
2018-09-28T01:18:03.947Z,28.42
2018-09-28T01:20:35.117Z,20.68
2018-09-28T01:23:05.680Z,22.90
2018-09-28T01:25:37.322Z,24.10
2018-09-28T01:28:07.928Z,27.10
2018-09-28T01:30:38.420Z,22.25
2018-09-28T01:33:08.851Z,21.00
2018-09-28T01:35:39.695Z,23.98
2018-09-28T01:38:10.267Z,28.45
2018-09-28T01:40:41.182Z,23.50
2018-09-28T01:43:11.642Z,21.75
2018-09-28T01:45:41.860Z,23.47
2018-09-28T01:48:12.358Z,22.07
2018-09-28T01:50:43.317Z,20.00
2018-09-28T01:53:14.163Z,21.80
2018-09-28T01:55:44.683Z,23.67
2018-09-28T01:58:15.426Z,24.80
2018-09-28T02:00:45.842Z,27.25
2018-09-28T02:03:16.481Z,30.00
2018-09-28T02:05:46.765Z,29.37
2018-09-28T02:08:18.078Z,32.58
2018-09-28T02:10:48.540Z,22.90
2018-09-28T02:13:19.168Z,24.63
2018-09-28T02:15:49.502Z,28.23
2018-09-28T02:18:20.550Z,24.05
2018-09-28T02:20:51.030Z,30.30
2018-09-28T02:23:21.620Z,32.35
2018-09-28T02:25:52.132Z,31.42
2018-09-28T02:28:23.784Z,25.82
2018-09-28T02:30:54.087Z,31.23
2018-09-28T02:33:24.545Z,26.05
2018-09-28T02:35:55.259Z,26.30
2018-09-28T02:38:25.680Z,29.75
2018-09-28T02:40:56.211Z,30.52
2018-09-28T02:43:26.827Z,35.73
2018-09-28T02:45:57.016Z,32.73
2018-09-28T02:48:27.767Z,35.33
2018-09-28T02:50:58.116Z,32.23
2018-09-28T02:53:28.507Z,29.15
2018-09-28T02:55:59.199Z,33.95
2018-09-28T02:58:30.527Z,34.70
2018-09-28T03:01:00.932Z,33.65
2018-09-28T03:03:32.252Z,31.93
2018-09-28T03:06:02.522Z,26.62
2018-09-28T03:08:33.056Z,29.30
2018-09-28T03:11:04.028Z,24.35
2018-09-28T03:13:34.945Z,29.25
2018-09-28T03:16:05.479Z,31.57
2018-09-28T03:18:35.959Z,32.23
2018-09-28T03:21:06.449Z,37.58
2018-09-28T03:23:37.385Z,35.05
2018-09-28T03:26:07.713Z,33.65
2018-09-28T03:28:38.348Z,28.47
2018-09-28T03:31:08.924Z,33.35
2018-09-28T03:33:39.842Z,30.35
2018-09-28T03:36:10.668Z,25.37
2018-09-28T03:38:41.139Z,29.40
2018-09-28T03:41:12.203Z,27.52
2018-09-28T03:43:42.755Z,29.77
2018-09-28T03:46:13.783Z,30.80
2018-09-28T03:48:44.344Z,26.45
2018-09-28T03:51:14.766Z,20.88
2018-09-28T03:53:45.124Z,19.70
2018-09-28T03:56:15.933Z,17.95
2018-09-28T03:58:46.332Z,20.20
2018-09-28T04:01:16.663Z,17.55
2018-09-28T04:03:47.421Z,20.05
2018-09-28T04:06:17.851Z,18.67
2018-09-28T04:08:48.452Z,21.70
2018-09-28T04:11:19.032Z,22.35
2018-09-28T04:13:49.530Z,19.65
2018-09-28T04:16:20.085Z,19.12
2018-09-28T04:18:50.479Z,24.05
2018-09-28T04:21:21.547Z,24.18
2018-09-28T04:23:51.702Z,20.17
2018-09-28T04:26:21.887Z,19.17
2018-09-28T04:28:53.098Z,20.17
2018-09-28T04:31:23.945Z,20.00
2018-09-28T04:33:58.285Z,16.52
2018-09-28T04:36:29.260Z,19.90
2018-09-28T04:39:00.440Z,17.67
2018-09-28T04:41:31.083Z,18.75
2018-09-28T04:44:01.519Z,19.77
2018-09-28T04:46:32.280Z,17.40
2018-09-28T04:49:03.597Z,19.07
2018-09-28T04:51:34.336Z,19.62
2018-09-28T04:54:05.145Z,21.82
2018-09-28T04:56:36.403Z,21.50
2018-09-28T04:59:07.320Z,18.65
2018-09-28T05:01:38.027Z,20.85
2018-09-28T05:04:09.013Z,23.42
2018-09-28T05:06:40.309Z,21.87
2018-09-28T05:09:13.388Z,20.00
2018-09-28T05:11:44.340Z,22.55
2018-09-28T05:14:15.115Z,30.88
2018-09-28T05:16:45.779Z,25.12
2018-09-28T05:19:16.981Z,22.25
2018-09-28T05:21:47.363Z,22.20
2018-09-28T05:24:18.082Z,24.75
2018-09-28T05:26:48.867Z,24.77
2018-09-28T05:29:19.617Z,25.50
2018-09-28T05:31:50.188Z,24.35
2018-09-28T05:34:20.464Z,22.95
2018-09-28T05:36:50.919Z,24.07
2018-09-28T05:39:22.068Z,23.30
2018-09-28T05:41:52.605Z,19.92
2018-09-28T05:44:23.047Z,19.48
2018-09-28T05:46:54.475Z,22.25
2018-09-28T05:49:24.918Z,23.67
2018-09-28T05:51:55.666Z,27.00
2018-09-28T05:54:25.721Z,22.05
2018-09-28T05:56:55.971Z,18.90
2018-09-28T05:59:31.551Z,23.15
2018-09-28T06:02:07.061Z,28.02
2018-09-28T06:04:42.397Z,25.88
2018-09-28T06:07:12.664Z,24.95
2018-09-28T06:09:43.116Z,25.15
2018-09-28T06:12:13.663Z,21.62
2018-09-28T06:14:43.732Z,23.30
2018-09-28T06:17:13.757Z,28.70
2018-09-28T06:19:44.090Z,23.00
2018-09-28T06:22:13.989Z,32.55
2018-09-28T06:24:44.322Z,26.48
2018-09-28T06:27:14.568Z,24.50
2018-09-28T06:29:45.505Z,29.60
2018-09-28T06:32:16.174Z,30.60
2018-09-28T06:34:46.639Z,24.02
2018-09-28T06:37:16.813Z,22.30
2018-09-28T06:39:48.168Z,23.25
2018-09-28T06:42:18.677Z,19.25
2018-09-28T06:44:49.203Z,27.05
2018-09-28T06:47:19.494Z,32.15
2018-09-28T06:49:51.100Z,24.27
2018-09-28T06:52:22.052Z,23.00
2018-09-28T06:54:52.585Z,28.67
2018-09-28T06:57:23.694Z,25.80
2018-09-28T06:59:54.546Z,28.50
2018-09-28T07:02:25.148Z,31.87
2018-09-28T07:04:56.141Z,27.93
2018-09-28T07:07:26.445Z,33.73
2018-09-28T07:09:56.640Z,29.45
2018-09-28T07:12:26.930Z,29.95
2018-09-28T07:14:57.255Z,32.75
2018-09-28T07:17:27.395Z,30.35
2018-09-28T07:20:00.535Z,27.93
2018-09-28T07:22:31.649Z,31.07
2018-09-28T07:25:02.097Z,25.70
2018-09-28T07:27:32.572Z,25.82
2018-09-28T07:30:02.887Z,20.57
2018-09-28T07:32:33.713Z,25.27
2018-09-28T07:35:03.935Z,23.07
2018-09-28T07:37:34.237Z,24.55
2018-09-28T07:40:04.733Z,20.57
2018-09-28T07:42:34.969Z,24.12
2018-09-28T07:45:05.486Z,19.65
2018-09-28T07:47:35.722Z,19.25
2018-09-28T07:50:05.723Z,22.22
2018-09-28T07:52:35.976Z,22.27
2018-09-28T07:55:06.353Z,17.97
2018-09-28T07:57:36.639Z,23.18
2018-09-28T08:00:06.693Z,19.25
2018-09-28T08:02:36.909Z,18.02
2018-09-28T08:05:07.054Z,13.53
2018-09-28T08:07:37.681Z,18.87
2018-09-28T08:10:08.634Z,16.97
2018-09-28T08:12:39.650Z,11.03
2018-09-28T08:15:09.960Z,8.60
2018-09-28T08:17:40.001Z,10.15
2018-09-28T08:20:11.779Z,10.20
2018-09-28T08:22:41.957Z,7.92
2018-09-28T08:25:12.347Z,9.13
2018-09-28T08:27:42.581Z,7.28
2018-09-28T08:30:12.517Z,7.85
2018-09-28T08:32:43.462Z,7.72
2018-09-28T08:35:13.870Z,9.25
2018-09-28T08:37:44.073Z,10.90
2018-09-28T08:40:14.497Z,9.28
2018-09-28T08:42:45.701Z,11.22
2018-09-28T08:45:15.889Z,12.50
2018-09-28T08:47:46.751Z,15.50
2018-09-28T08:50:17.134Z,11.18
2018-09-28T08:52:47.766Z,17.42
2018-09-28T08:55:18.919Z,9.33
2018-09-28T08:57:49.242Z,10.08
2018-09-28T09:00:19.919Z,9.15
2018-09-28T09:02:51.031Z,9.70
2018-09-28T09:05:21.030Z,10.93
2018-09-28T09:07:51.904Z,9.15
2018-09-28T09:10:22.112Z,8.88
2018-09-28T09:12:52.840Z,10.13
2018-09-28T09:15:23.670Z,10.15
2018-09-28T09:17:54.649Z,12.40
2018-09-28T09:20:25.049Z,10.13
2018-09-28T09:22:55.254Z,11.55
2018-09-28T09:25:25.968Z,14.87
2018-09-28T09:27:56.043Z,18.10
2018-09-28T09:30:26.188Z,9.40
2018-09-28T09:32:56.802Z,11.65
2018-09-28T09:35:27.265Z,13.32
2018-09-28T09:37:57.333Z,9.30
2018-09-28T09:40:27.804Z,10.63
2018-09-28T09:42:58.233Z,11.68
2018-09-28T09:45:28.634Z,12.45
2018-09-28T09:47:59.083Z,11.22
2018-09-28T09:50:29.235Z,9.63
2018-09-28T09:53:00.081Z,13.43
2018-09-28T09:55:30.564Z,10.58
2018-09-28T09:58:01.038Z,11.83
2018-09-28T10:00:36.221Z,9.35
2018-09-28T10:03:11.407Z,10.60
2018-09-28T10:05:41.716Z,11.38
2018-09-28T10:08:11.943Z,8.28
2018-09-28T10:10:42.006Z,9.38
2018-09-28T10:13:12.948Z,9.45
2018-09-28T10:15:43.061Z,7.20
2018-09-28T10:18:14.307Z,8.65
2018-09-28T10:20:45.063Z,6.85
2018-09-28T10:23:15.079Z,4.25
2018-09-28T10:25:44.997Z,7.12
2018-09-28T10:28:15.445Z,4.50
2018-09-28T10:30:46.790Z,4.70
2018-09-28T10:33:17.106Z,4.28
2018-09-28T10:35:47.526Z,5.08
2018-09-28T10:38:17.830Z,6.03
2018-09-28T10:40:48.056Z,22.70
2018-09-28T10:43:17.941Z,4.22
2018-09-28T10:45:48.562Z,4.45
2018-09-28T10:48:19.032Z,3.45
2018-09-28T10:50:49.313Z,4.08
2018-09-28T10:53:19.444Z,6.12
2018-09-28T10:55:49.460Z,3.33
2018-09-28T10:58:19.789Z,3.33
2018-09-28T11:00:50.413Z,3.35
2018-09-28T11:03:20.614Z,1.75
2018-09-28T11:05:50.575Z,2.33
2018-09-28T11:08:21.080Z,4.15
2018-09-28T11:10:51.277Z,4.75
2018-09-28T11:13:21.824Z,2.52
2018-09-28T11:15:52.321Z,2.40
2018-09-28T11:18:22.892Z,3.77
2018-09-28T11:20:53.110Z,2.92
2018-09-28T11:23:23.602Z,3.77
2018-09-28T11:25:53.721Z,6.42
2018-09-28T11:28:23.944Z,3.40
2018-09-28T11:30:54.952Z,2.90
2018-09-28T11:33:25.185Z,2.85
2018-09-28T11:35:55.313Z,5.83
2018-09-28T11:38:25.723Z,3.35
2018-09-28T11:40:56.015Z,6.65
2018-09-28T11:43:26.073Z,1.75
2018-09-28T11:45:56.299Z,3.75
2018-09-28T11:48:26.203Z,3.35
2018-09-28T11:51:01.042Z,2.12
2018-09-28T11:53:31.335Z,2.80
2018-09-28T11:56:01.305Z,2.95
2018-09-28T11:58:31.253Z,2.70
2018-09-28T12:01:01.599Z,2.72
2018-09-28T12:03:31.801Z,2.52
2018-09-28T12:06:02.705Z,2.72
2018-09-28T12:08:33.872Z,2.42
2018-09-28T12:11:04.763Z,2.10
2018-09-28T12:13:35.315Z,5.60
2018-09-28T12:16:05.864Z,2.05
2018-09-28T12:18:36.175Z,4.40
2018-09-28T12:21:06.293Z,7.00
2018-09-28T12:23:36.826Z,3.62
2018-09-28T12:26:07.697Z,2.92
2018-09-28T12:28:41.039Z,2.47
2018-09-28T12:31:11.582Z,3.52
2018-09-28T12:33:42.344Z,4.15
2018-09-28T12:36:12.390Z,6.42
2018-09-28T12:38:43.423Z,2.58
2018-09-28T12:41:13.761Z,4.00
2018-09-28T12:43:44.999Z,3.58
2018-09-28T12:46:15.231Z,6.33
2018-09-28T12:48:45.702Z,2.85
2018-09-28T12:51:15.783Z,2.33
2018-09-28T12:53:45.990Z,2.60
2018-09-28T12:56:16.185Z,3.45
2018-09-28T12:58:46.769Z,3.20
2018-09-28T13:01:17.419Z,10.50
2018-09-28T13:03:47.841Z,8.63
2018-09-28T13:06:18.319Z,5.85
2018-09-28T13:08:48.929Z,4.47
2018-09-28T13:11:19.637Z,2.25
2018-09-28T13:13:50.128Z,3.30
2018-09-28T13:16:20.396Z,3.67
2018-09-28T13:18:51.280Z,2.58
2018-09-28T13:21:21.536Z,3.62
2018-09-28T13:23:52.951Z,3.08
2018-09-28T13:26:23.336Z,4.50
2018-09-28T13:28:54.141Z,4.97
2018-09-28T13:31:24.400Z,7.95
2018-09-28T13:33:55.306Z,2.83
2018-09-28T13:36:25.835Z,3.47
2018-09-28T13:38:56.807Z,6.45
2018-09-28T13:41:28.100Z,3.42
2018-09-28T13:43:58.527Z,2.67
2018-09-28T13:46:32.942Z,3.83
2018-09-28T13:49:03.365Z,4.08
2018-09-28T13:51:33.342Z,5.95
2018-09-28T13:54:04.162Z,2.47
2018-09-28T13:56:34.960Z,2.58
2018-09-28T13:59:06.575Z,4.97
2018-09-28T14:01:37.121Z,4.12
2018-09-28T14:04:08.252Z,3.92
2018-09-28T14:06:38.643Z,3.62
2018-09-28T14:09:10.587Z,3.62
2018-09-28T14:11:41.642Z,3.47
2018-09-28T14:14:12.122Z,3.58
2018-09-28T14:16:42.374Z,4.72
2018-09-28T14:19:13.382Z,6.00
2018-09-28T14:21:43.559Z,3.62
2018-09-28T14:24:14.625Z,5.65
2018-09-28T14:26:45.320Z,5.67
2018-09-28T14:29:15.625Z,6.85
2018-09-28T14:31:45.866Z,5.78
2018-09-28T14:34:16.885Z,11.30
2018-09-28T14:36:47.384Z,3.40
2018-09-28T14:39:17.808Z,4.58
2018-09-28T14:41:48.291Z,5.30
2018-09-28T14:44:19.305Z,7.45
2018-09-28T14:46:50.072Z,3.70
2018-09-28T14:49:20.801Z,6.37
2018-09-28T14:51:51.777Z,3.62
2018-09-28T14:54:23.658Z,6.62
2018-09-28T14:56:54.154Z,8.38
2018-09-28T14:59:25.026Z,21.60
2018-09-28T15:01:55.526Z,9.35
2018-09-28T15:04:26.405Z,9.68
2018-09-28T15:06:59.824Z,7.22
2018-09-28T15:09:30.315Z,6.12
2018-09-28T15:12:01.187Z,4.28
2018-09-28T15:14:31.948Z,5.25
2018-09-28T15:17:02.166Z,3.37
2018-09-28T15:19:33.581Z,3.75
2018-09-28T15:22:03.777Z,4.37
2018-09-28T15:24:34.251Z,3.75
2018-09-28T15:27:05.061Z,4.83
2018-09-28T15:29:35.235Z,8.93
2018-09-28T15:32:05.333Z,4.55
2018-09-28T15:34:35.660Z,4.70
2018-09-28T15:37:05.998Z,5.17
2018-09-28T15:39:36.808Z,4.80
2018-09-28T15:42:07.421Z,8.35
2018-09-28T15:44:37.723Z,6.03
2018-09-28T15:47:09.324Z,5.85
2018-09-28T15:49:39.775Z,4.65
2018-09-28T15:52:10.234Z,7.20
2018-09-28T15:54:44.858Z,5.75
2018-09-28T15:57:14.822Z,5.83
2018-09-28T15:59:44.950Z,6.75
2018-09-28T16:02:15.189Z,11.83
2018-09-28T16:04:46.531Z,12.00
2018-09-28T16:07:16.947Z,12.55
2018-09-28T16:09:47.232Z,13.90
2018-09-28T16:12:20.095Z,9.68
2018-09-28T16:14:50.546Z,10.63
2018-09-28T16:17:20.397Z,13.60
2018-09-28T16:19:50.645Z,6.78
2018-09-28T16:22:21.041Z,10.25
2018-09-28T16:24:51.676Z,10.05
2018-09-28T16:27:22.595Z,6.97
2018-09-28T16:29:57.633Z,8.65
2018-09-28T16:32:28.115Z,9.20
2018-09-28T16:34:58.290Z,7.58
2018-09-28T16:37:28.402Z,7.80
2018-09-28T16:39:58.286Z,9.93
2018-09-28T16:42:28.677Z,7.25
2018-09-28T16:44:59.111Z,6.67
2018-09-28T16:47:29.125Z,10.32
2018-09-28T16:49:59.076Z,9.45
2018-09-28T16:52:29.161Z,13.05
2018-09-28T16:55:00.055Z,15.93
2018-09-28T16:57:31.585Z,10.32
2018-09-28T17:00:01.773Z,13.08
2018-09-28T17:02:32.328Z,12.37
2018-09-28T17:05:02.757Z,10.80
2018-09-28T17:07:33.176Z,13.03
2018-09-28T17:10:03.459Z,12.43
2018-09-28T17:12:33.657Z,10.58
2018-09-28T17:15:04.099Z,11.43
2018-09-28T17:17:34.062Z,9.80
2018-09-28T17:20:06.034Z,9.95
2018-09-28T17:22:36.262Z,12.93
2018-09-28T17:25:06.678Z,6.78
2018-09-28T17:27:36.753Z,8.25
2018-09-28T17:30:07.016Z,11.70
2018-09-28T17:32:37.429Z,10.80
2018-09-28T17:35:07.731Z,5.22
2018-09-28T17:37:38.135Z,9.95
2018-09-28T17:40:08.994Z,8.48
2018-09-28T17:42:39.434Z,7.87
2018-09-28T17:45:09.948Z,10.53
2018-09-28T17:47:40.995Z,12.30
2018-09-28T17:50:11.007Z,9.85
2018-09-28T17:52:41.211Z,10.20
2018-09-28T17:55:11.291Z,12.28
2018-09-28T17:57:41.783Z,7.92
2018-09-28T18:00:11.898Z,11.03
2018-09-28T18:02:41.946Z,10.75
2018-09-28T18:05:12.730Z,17.73
2018-09-28T18:07:43.011Z,8.58
2018-09-28T18:10:13.190Z,9.30
2018-09-28T18:12:43.166Z,6.65
2018-09-28T18:15:13.208Z,4.83
2018-09-28T18:17:44.558Z,4.78
2018-09-28T18:20:15.500Z,4.95
2018-09-28T18:22:45.689Z,4.40
2018-09-28T18:25:15.747Z,6.72
2018-09-28T18:27:46.039Z,4.62
2018-09-28T18:30:16.530Z,6.62
2018-09-28T18:32:46.649Z,4.90
2018-09-28T18:35:17.142Z,8.43
2018-09-28T18:37:47.780Z,5.25
2018-09-28T18:40:17.898Z,5.40
2018-09-28T18:42:48.214Z,7.90
2018-09-28T18:45:18.747Z,4.85
2018-09-28T18:47:49.163Z,8.98
2018-09-28T18:50:19.338Z,5.50
2018-09-28T18:52:49.673Z,4.25
2018-09-28T18:55:19.740Z,6.03
2018-09-28T18:57:51.042Z,3.62
2018-09-28T19:00:22.113Z,7.92
2018-09-28T19:02:52.264Z,4.08
2018-09-28T19:05:23.570Z,7.37
2018-09-28T19:07:53.608Z,13.35
2018-09-28T19:10:24.087Z,5.08
2018-09-28T19:12:54.376Z,3.70
2018-09-28T19:15:24.736Z,4.70
2018-09-28T19:17:54.994Z,3.65
2018-09-28T19:20:24.862Z,7.25
2018-09-28T19:22:55.260Z,5.75
2018-09-28T19:25:26.411Z,4.83
2018-09-28T19:27:56.643Z,4.45
2018-09-28T19:30:27.519Z,4.90
2018-09-28T19:32:58.008Z,5.12
2018-09-28T19:35:28.152Z,6.80
2018-09-28T19:37:58.625Z,9.95
2018-09-28T19:40:35.022Z,4.90
2018-09-28T19:43:04.841Z,6.05
2018-09-28T19:45:35.039Z,3.95
2018-09-28T19:48:04.965Z,5.62
2018-09-28T19:50:35.284Z,7.12
2018-09-28T19:53:05.077Z,5.83
2018-09-28T19:55:35.357Z,5.80
2018-09-28T19:58:06.026Z,7.50
2018-09-28T20:00:36.461Z,5.67
2018-09-28T20:03:06.838Z,7.10
2018-09-28T20:05:37.309Z,8.88
2018-09-28T20:08:07.257Z,5.92
2018-09-28T20:10:37.720Z,8.70
2018-09-28T20:13:07.821Z,6.08
2018-09-28T20:15:38.208Z,6.85
2018-09-28T20:18:08.284Z,8.40
2018-09-28T20:20:38.126Z,5.15
2018-09-28T20:23:08.171Z,7.37
2018-09-28T20:25:38.497Z,7.42
2018-09-28T20:28:09.113Z,4.97
2018-09-28T20:30:39.282Z,9.90
2018-09-28T20:33:09.785Z,5.70
2018-09-28T20:35:40.115Z,8.48
2018-09-28T20:38:10.790Z,7.08
2018-09-28T20:40:41.202Z,6.30
2018-09-28T20:43:11.793Z,8.48
2018-09-28T20:45:41.624Z,4.83
2018-09-28T20:48:11.662Z,8.05
2018-09-28T20:50:41.850Z,8.98
2018-09-28T20:53:12.159Z,5.97
2018-09-28T20:55:43.245Z,8.35
2018-09-28T20:58:13.460Z,9.58
2018-09-28T21:00:43.594Z,8.80
2018-09-28T21:03:13.458Z,7.20
2018-09-28T21:05:44.277Z,4.35
2018-09-28T21:08:14.531Z,5.83
2018-09-28T21:10:44.615Z,8.33
2018-09-28T21:13:15.240Z,4.85
2018-09-28T21:15:46.373Z,5.83
2018-09-28T21:18:16.374Z,4.15
2018-09-28T21:20:47.546Z,8.75
2018-09-28T21:23:17.770Z,4.10
2018-09-28T21:25:48.114Z,8.30
2018-09-28T21:28:19.168Z,9.75
2018-09-28T21:30:49.351Z,6.35
2018-09-28T21:33:20.107Z,4.25
2018-09-28T21:35:50.615Z,4.30
2018-09-28T21:38:21.029Z,12.23
2018-09-28T21:40:51.348Z,6.72
2018-09-28T21:43:21.344Z,8.73
2018-09-28T21:45:51.648Z,6.58
2018-09-28T21:48:22.186Z,7.17
2018-09-28T21:50:54.633Z,7.03
2018-09-28T21:53:25.121Z,11.38
2018-09-28T21:55:55.506Z,6.00
2018-09-28T21:58:25.937Z,6.67
2018-09-28T22:00:57.416Z,8.18
2018-09-28T22:03:27.742Z,7.83
2018-09-28T22:05:58.636Z,3.08
2018-09-28T22:08:29.011Z,3.12
2018-09-28T22:10:59.459Z,3.75
2018-09-28T22:13:29.655Z,5.00
2018-09-28T22:16:00.121Z,4.45
2018-09-28T22:18:30.247Z,4.90
2018-09-28T22:21:00.223Z,4.85
2018-09-28T22:23:31.122Z,3.12
2018-09-28T22:26:01.376Z,7.30
2018-09-28T22:28:32.300Z,4.20
2018-09-28T22:31:02.733Z,3.75
2018-09-28T22:33:32.873Z,4.95
2018-09-28T22:36:03.123Z,4.00
2018-09-28T22:38:33.267Z,4.97
2018-09-28T22:41:03.368Z,3.17
2018-09-28T22:43:33.745Z,5.20
2018-09-28T22:46:04.514Z,4.03
2018-09-28T22:48:34.710Z,4.92
2018-09-28T22:51:05.036Z,5.92
2018-09-28T22:53:35.873Z,4.42
2018-09-28T22:56:06.516Z,5.75
2018-09-28T22:58:37.282Z,3.52
2018-09-28T23:01:07.824Z,5.87
2018-09-28T23:03:38.234Z,11.22
2018-09-28T23:06:08.368Z,3.95
2018-09-28T23:08:38.619Z,7.97
2018-09-28T23:11:09.183Z,4.78
2018-09-28T23:13:39.660Z,4.83
2018-09-28T23:16:10.855Z,8.60
2018-09-28T23:18:41.486Z,12.15
2018-09-28T23:21:12.330Z,5.72
2018-09-28T23:23:43.464Z,9.85
2018-09-28T23:26:14.032Z,5.80
2018-09-28T23:28:44.305Z,4.80
2018-09-28T23:31:14.601Z,9.90
2018-09-28T23:33:45.035Z,9.03
2018-09-28T23:36:15.483Z,4.67
2018-09-28T23:38:45.648Z,6.45
2018-09-28T23:41:16.471Z,9.43
2018-09-28T23:43:47.070Z,5.17
2018-09-28T23:46:17.769Z,4.60
2018-09-28T23:48:48.315Z,6.90
2018-09-28T23:51:18.797Z,9.38
2018-09-28T23:53:49.316Z,5.78
2018-09-28T23:56:19.531Z,8.67
2018-09-28T23:58:50.130Z,7.12
